sensor_id;sensor_type;location;lat;lon;timestamp;P1;durP1;ratioP1;P2;durP2;ratioP2
3401;SDS011;1714;49.756;8.610;2023-03-01T04:40:25;19.70;;;10.35;;
3401;SDS011;1714;49.756;8.610;2023-03-01T04:51:01;23.27;;;10.93;;
3401;SDS011;1714;49.756;8.610;2023-03-01T05:01:39;20.70;;;10.23;;
3401;SDS011;1714;49.756;8.610;2023-03-01T05:12:18;21.73;;;10.40;;
3401;SDS011;1714;49.756;8.610;2023-03-01T05:22:54;20.55;;;10.27;;
3401;SDS011;1714;49.756;8.610;2023-03-01T05:33:33;26.30;;;10.80;;
3401;SDS011;1714;49.756;8.610;2023-03-01T05:44:10;18.75;;;10.68;;
3401;SDS011;1714;49.756;8.610;2023-03-01T05:54:47;19.77;;;9.98;;
3401;SDS011;1714;49.756;8.610;2023-03-01T06:05:23;24.75;;;13.07;;
3401;SDS011;1714;49.756;8.610;2023-03-01T06:15:58;22.10;;;12.25;;
3401;SDS011;1714;49.756;8.610;2023-03-01T06:26:34;23.27;;;12.13;;
3401;SDS011;1714;49.756;8.610;2023-03-01T06:37:10;24.85;;;12.25;;
3401;SDS011;1714;49.756;8.610;2023-03-01T06:47:46;25.15;;;11.77;;
3401;SDS011;1714;49.756;8.610;2023-03-01T06:58:22;26.70;;;12.35;;
3401;SDS011;1714;49.756;8.610;2023-03-01T07:08:58;22.33;;;13.20;;
3401;SDS011;1714;49.756;8.610;2023-03-01T07:19:33;22.52;;;14.13;;
3401;SDS011;1714;49.756;8.610;2023-03-01T07:30:09;20.88;;;10.93;;
3401;SDS011;1714;49.756;8.610;2023-03-01T07:40:45;14.38;;;10.27;;
3401;SDS011;1714;49.756;8.610;2023-03-01T07:51:21;21.65;;;11.63;;
3401;SDS011;1714;49.756;8.610;2023-03-01T08:01:56;17.30;;;9.75;;
3401;SDS011;1714;49.756;8.610;2023-03-01T08:12:33;14.52;;;10.98;;
3401;SDS011;1714;49.756;8.610;2023-03-01T08:23:09;15.95;;;11.27;;
3401;SDS011;1714;49.756;8.610;2023-03-01T08:33:45;16.60;;;11.40;;
3401;SDS011;1714;49.756;8.610;2023-03-01T08:44:25;20.98;;;12.65;;
3401;SDS011;1714;49.756;8.610;2023-03-01T08:55:02;16.50;;;11.95;;
3401;SDS011;1714;49.756;8.610;2023-03-01T09:05:38;16.85;;;11.27;;
3401;SDS011;1714;49.756;8.610;2023-03-01T09:16:15;19.50;;;13.20;;
3401;SDS011;1714;49.756;8.610;2023-03-01T09:26:53;18.55;;;11.50;;
3401;SDS011;1714;49.756;8.610;2023-03-01T09:37:31;22.15;;;13.43;;
3401;SDS011;1714;49.756;8.610;2023-03-01T09:48:11;20.85;;;13.77;;
3401;SDS011;1714;49.756;8.610;2023-03-01T10:09:58;20.88;;;13.57;;
3401;SDS011;1714;49.756;8.610;2023-03-01T10:20:43;19.88;;;13.43;;
3401;SDS011;1714;49.756;8.610;2023-03-01T10:31:25;20.53;;;13.13;;
3401;SDS011;1714;49.756;8.610;2023-03-01T10:42:19;21.15;;;14.15;;
3401;SDS011;1714;49.756;8.610;2023-03-01T10:53:50;20.45;;;13.18;;
3401;SDS011;1714;49.756;8.610;2023-03-01T11:04:11;23.23;;;14.63;;
3401;SDS011;1714;49.756;8.610;2023-03-01T11:14:49;21.60;;;12.85;;
3401;SDS011;1714;49.756;8.610;2023-03-01T11:25:29;21.67;;;12.48;;
3401;SDS011;1714;49.756;8.610;2023-03-01T11:47:16;21.10;;;12.68;;
3401;SDS011;1714;49.756;8.610;2023-03-01T12:42:34;18.45;;;10.95;;
3401;SDS011;1714;49.756;8.610;2023-03-01T12:53:28;15.85;;;9.88;;
3401;SDS011;1714;49.756;8.610;2023-03-01T13:04:18;15.55;;;8.18;;
3401;SDS011;1714;49.756;8.610;2023-03-01T13:15:01;15.05;;;9.07;;
3401;SDS011;1714;49.756;8.610;2023-03-01T13:47:36;12.73;;;7.47;;
3401;SDS011;1714;49.756;8.610;2023-03-01T13:58:32;13.10;;;7.43;;
3401;SDS011;1714;49.756;8.610;2023-03-01T14:09:22;10.20;;;7.22;;
3401;SDS011;1714;49.756;8.610;2023-03-01T14:20:11;15.55;;;7.32;;
3401;SDS011;1714;49.756;8.610;2023-03-01T14:30:52;10.07;;;6.78;;
3401;SDS011;1714;49.756;8.610;2023-03-01T14:41:29;10.93;;;6.70;;
3401;SDS011;1714;49.756;8.610;2023-03-01T14:52:07;10.85;;;6.47;;
3401;SDS011;1714;49.756;8.610;2023-03-01T15:02:56;14.47;;;6.30;;
3401;SDS011;1714;49.756;8.610;2023-03-01T15:13:35;11.77;;;6.55;;
3401;SDS011;1714;49.756;8.610;2023-03-01T15:34:54;13.23;;;8.20;;
3401;SDS011;1714;49.756;8.610;2023-03-01T15:45:31;12.45;;;7.43;;
3401;SDS011;1714;49.756;8.610;2023-03-01T15:56:13;17.42;;;8.77;;
3401;SDS011;1714;49.756;8.610;2023-03-01T16:06:49;16.65;;;10.48;;
3401;SDS011;1714;49.756;8.610;2023-03-01T16:17:29;14.02;;;7.72;;
3401;SDS011;1714;49.756;8.610;2023-03-01T16:28:05;13.98;;;8.32;;
3401;SDS011;1714;49.756;8.610;2023-03-01T16:49:24;15.63;;;8.65;;
3401;SDS011;1714;49.756;8.610;2023-03-01T16:59:59;13.88;;;7.63;;
3401;SDS011;1714;49.756;8.610;2023-03-01T17:10:35;20.52;;;8.82;;
3401;SDS011;1714;49.756;8.610;2023-03-01T17:21:11;16.33;;;8.18;;
3401;SDS011;1714;49.756;8.610;2023-03-01T17:31:47;15.57;;;8.20;;
3401;SDS011;1714;49.756;8.610;2023-03-01T17:42:23;13.88;;;8.98;;
3401;SDS011;1714;49.756;8.610;2023-03-01T17:52:59;17.63;;;9.90;;
3401;SDS011;1714;49.756;8.610;2023-03-01T18:03:35;15.93;;;10.32;;
3401;SDS011;1714;49.756;8.610;2023-03-01T18:14:11;17.55;;;9.68;;
3401;SDS011;1714;49.756;8.610;2023-03-01T18:24:47;17.55;;;10.43;;
3401;SDS011;1714;49.756;8.610;2023-03-01T18:35:22;18.27;;;9.57;;
3401;SDS011;1714;49.756;8.610;2023-03-01T18:45:58;17.58;;;10.07;;
3401;SDS011;1714;49.756;8.610;2023-03-01T18:56:34;15.82;;;9.88;;
3401;SDS011;1714;49.756;8.610;2023-03-01T19:07:10;16.25;;;10.50;;
3401;SDS011;1714;49.756;8.610;2023-03-01T19:17:46;18.50;;;10.07;;
3401;SDS011;1714;49.756;8.610;2023-03-01T19:28:21;24.58;;;12.82;;
3401;SDS011;1714;49.756;8.610;2023-03-01T19:38:58;43.95;;;21.33;;
3401;SDS011;1714;49.756;8.610;2023-03-01T19:49:35;52.38;;;22.95;;
3401;SDS011;1714;49.756;8.610;2023-03-01T20:00:12;24.80;;;11.90;;
3401;SDS011;1714;49.756;8.610;2023-03-01T20:10:48;28.92;;;13.75;;
3401;SDS011;1714;49.756;8.610;2023-03-01T20:21:25;22.70;;;12.63;;
3401;SDS011;1714;49.756;8.610;2023-03-01T20:32:02;26.70;;;11.48;;
3401;SDS011;1714;49.756;8.610;2023-03-01T20:42:37;29.63;;;16.38;;
3401;SDS011;1714;49.756;8.610;2023-03-01T20:53:13;21.45;;;11.20;;
3401;SDS011;1714;49.756;8.610;2023-03-01T21:03:50;18.20;;;10.50;;
3401;SDS011;1714;49.756;8.610;2023-03-01T21:14:26;20.80;;;10.48;;
3401;SDS011;1714;49.756;8.610;2023-03-01T21:25:02;20.42;;;10.80;;
3401;SDS011;1714;49.756;8.610;2023-03-01T21:35:38;21.58;;;9.93;;
3401;SDS011;1714;49.756;8.610;2023-03-01T21:46:15;25.30;;;10.68;;
3401;SDS011;1714;49.756;8.610;2023-03-01T21:56:52;22.92;;;11.55;;
3401;SDS011;1714;49.756;8.610;2023-03-01T22:07:29;21.60;;;10.95;;
3401;SDS011;1714;49.756;8.610;2023-03-01T22:18:04;19.55;;;9.73;;
3401;SDS011;1714;49.756;8.610;2023-03-01T22:28:40;21.35;;;10.27;;
